CPX675 Details

Departure: Lynden Pindling International Airport (MYNN)
Arrival: Providenciales International Airport (MBPV) at N/A
Route: ZQA A555 MICAS G648 PVN
Notes:


Current Weather Information
MYNN 191700Z 11009KT 9999 FEW016CB SCT025 33/23 A3007
MBPV 191700Z 06005KT 8000 FEW012CB SCT020 30/25 Q1016